Terminal Aerodrome Forecast
Issued by NWS

Home | Current Version | Previous Version | Graphics & Text | Print | Product List | Glossary On
Versions: 1 2 3 4 5 6 7 8 9 10 11 12 13 14
000
FTUS45 KGGW 161125 AAA
TAFGDV
TAF AMD
KGDV 161125Z 1611/1712 11009KT P6SM FEW150 WS020/15035KT
     FM161500 12017KT P6SM SKC
     FM170000 13019KT P6SM FEW250
     FM170400 12013KT P6SM BKN080
     FM170900 10008KT P6SM BKN015=

USA.gov is the U.S. government's official web portal to all federal, state and local government web resources and services.